sensor_id;sensor_type;location;lat;lon;timestamp;pressure;altitude;pressure_sealevel;temperature
69552;BMP280;63774;45.292;11.784;2023-05-19T00:01:08;102173.51;;;21.43
69552;BMP280;63774;45.292;11.784;2023-05-19T00:03:35;102175.18;;;21.44
69552;BMP280;63774;45.292;11.784;2023-05-19T00:06:05;102170.30;;;21.43
69552;BMP280;63774;45.292;11.784;2023-05-19T00:08:33;102172.92;;;21.42
69552;BMP280;63774;45.292;11.784;2023-05-19T00:11:00;102173.85;;;21.42
69552;BMP280;63774;45.292;11.784;2023-05-19T00:13:26;102171.88;;;21.42
69552;BMP280;63774;45.292;11.784;2023-05-19T00:15:52;102174.30;;;21.42
69552;BMP280;63774;45.292;11.784;2023-05-19T00:18:18;102175.49;;;21.43
69552;BMP280;63774;45.292;11.784;2023-05-19T00:20:44;102174.02;;;21.42
69552;BMP280;63774;45.292;11.784;2023-05-19T00:23:10;102173.50;;;21.42
69552;BMP280;63774;45.292;11.784;2023-05-19T00:25:35;102167.87;;;21.41
69552;BMP280;63774;45.292;11.784;2023-05-19T00:28:01;102164.92;;;21.43
69552;BMP280;63774;45.292;11.784;2023-05-19T00:30:28;102160.77;;;21.42
69552;BMP280;63774;45.292;11.784;2023-05-19T00:32:54;102160.66;;;21.41
69552;BMP280;63774;45.292;11.784;2023-05-19T00:35:20;102160.74;;;21.42
69552;BMP280;63774;45.292;11.784;2023-05-19T00:37:46;102160.83;;;21.41
69552;BMP280;63774;45.292;11.784;2023-05-19T00:40:11;102159.52;;;21.42
69552;BMP280;63774;45.292;11.784;2023-05-19T00:42:37;102155.44;;;21.42
69552;BMP280;63774;45.292;11.784;2023-05-19T00:45:04;102154.81;;;21.42
69552;BMP280;63774;45.292;11.784;2023-05-19T00:47:30;102151.57;;;21.41
69552;BMP280;63774;45.292;11.784;2023-05-19T00:49:55;102148.47;;;21.41
69552;BMP280;63774;45.292;11.784;2023-05-19T00:52:21;102150.73;;;21.41
69552;BMP280;63774;45.292;11.784;2023-05-19T00:54:48;102148.49;;;21.41
69552;BMP280;63774;45.292;11.784;2023-05-19T00:57:15;102148.52;;;21.42
69552;BMP280;63774;45.292;11.784;2023-05-19T00:59:41;102145.83;;;21.40
69552;BMP280;63774;45.292;11.784;2023-05-19T01:02:06;102147.19;;;21.41
69552;BMP280;63774;45.292;11.784;2023-05-19T01:04:35;102144.29;;;21.41
69552;BMP280;63774;45.292;11.784;2023-05-19T01:07:02;102144.29;;;21.39
69552;BMP280;63774;45.292;11.784;2023-05-19T01:09:28;102146.95;;;21.40
69552;BMP280;63774;45.292;11.784;2023-05-19T01:11:54;102146.52;;;21.39
69552;BMP280;63774;45.292;11.784;2023-05-19T01:14:20;102145.45;;;21.40
69552;BMP280;63774;45.292;11.784;2023-05-19T01:19:56;102144.94;;;21.40
69552;BMP280;63774;45.292;11.784;2023-05-19T01:25:13;102147.33;;;21.41
69552;BMP280;63774;45.292;11.784;2023-05-19T01:30:56;102149.04;;;21.41
69552;BMP280;63774;45.292;11.784;2023-05-19T01:33:24;102149.19;;;21.40
69552;BMP280;63774;45.292;11.784;2023-05-19T01:35:53;102150.98;;;21.40
69552;BMP280;63774;45.292;11.784;2023-05-19T01:38:20;102147.86;;;21.38
69552;BMP280;63774;45.292;11.784;2023-05-19T01:40:47;102146.13;;;21.38
69552;BMP280;63774;45.292;11.784;2023-05-19T01:43:18;102145.28;;;21.39
69552;BMP280;63774;45.292;11.784;2023-05-19T01:45:45;102149.37;;;21.39
69552;BMP280;63774;45.292;11.784;2023-05-19T01:48:11;102152.06;;;21.38
69552;BMP280;63774;45.292;11.784;2023-05-19T01:50:38;102156.58;;;21.40
69552;BMP280;63774;45.292;11.784;2023-05-19T01:53:03;102155.73;;;21.38
69552;BMP280;63774;45.292;11.784;2023-05-19T01:55:31;102157.55;;;21.38
69552;BMP280;63774;45.292;11.784;2023-05-19T01:58:08;102156.41;;;21.38
69552;BMP280;63774;45.292;11.784;2023-05-19T02:00:51;102158.26;;;21.38
69552;BMP280;63774;45.292;11.784;2023-05-19T02:08:50;102157.54;;;21.38
69552;BMP280;63774;45.292;11.784;2023-05-19T02:13:56;102154.36;;;21.36
69552;BMP280;63774;45.292;11.784;2023-05-19T02:16:27;102157.89;;;21.36
69552;BMP280;63774;45.292;11.784;2023-05-19T02:18:54;102160.25;;;21.37
69552;BMP280;63774;45.292;11.784;2023-05-19T02:21:20;102159.66;;;21.37
69552;BMP280;63774;45.292;11.784;2023-05-19T02:23:47;102158.98;;;21.37
69552;BMP280;63774;45.292;11.784;2023-05-19T02:26:13;102158.24;;;21.36
69552;BMP280;63774;45.292;11.784;2023-05-19T02:28:38;102159.26;;;21.37
69552;BMP280;63774;45.292;11.784;2023-05-19T02:31:03;102157.72;;;21.37
69552;BMP280;63774;45.292;11.784;2023-05-19T02:33:33;102156.14;;;21.37
69552;BMP280;63774;45.292;11.784;2023-05-19T02:35:58;102157.63;;;21.36
69552;BMP280;63774;45.292;11.784;2023-05-19T02:38:24;102155.98;;;21.37
69552;BMP280;63774;45.292;11.784;2023-05-19T02:40:53;102153.52;;;21.38
69552;BMP280;63774;45.292;11.784;2023-05-19T02:43:18;102152.88;;;21.37
69552;BMP280;63774;45.292;11.784;2023-05-19T02:45:44;102154.02;;;21.38
69552;BMP280;63774;45.292;11.784;2023-05-19T02:48:10;102151.42;;;21.37
69552;BMP280;63774;45.292;11.784;2023-05-19T02:50:35;102151.25;;;21.36
69552;BMP280;63774;45.292;11.784;2023-05-19T02:53:01;102152.52;;;21.36
69552;BMP280;63774;45.292;11.784;2023-05-19T02:55:27;102152.79;;;21.36
69552;BMP280;63774;45.292;11.784;2023-05-19T02:57:52;102150.66;;;21.36
69552;BMP280;63774;45.292;11.784;2023-05-19T03:00:18;102151.02;;;21.36
69552;BMP280;63774;45.292;11.784;2023-05-19T03:02:44;102147.83;;;21.36
69552;BMP280;63774;45.292;11.784;2023-05-19T03:05:10;102148.15;;;21.37
69552;BMP280;63774;45.292;11.784;2023-05-19T03:07:36;102147.27;;;21.36
69552;BMP280;63774;45.292;11.784;2023-05-19T03:10:01;102145.32;;;21.36
69552;BMP280;63774;45.292;11.784;2023-05-19T03:12:28;102144.95;;;21.36
69552;BMP280;63774;45.292;11.784;2023-05-19T03:14:54;102145.55;;;21.36
69552;BMP280;63774;45.292;11.784;2023-05-19T03:17:19;102146.55;;;21.34
69552;BMP280;63774;45.292;11.784;2023-05-19T03:19:45;102144.36;;;21.35
69552;BMP280;63774;45.292;11.784;2023-05-19T03:22:10;102144.21;;;21.35
69552;BMP280;63774;45.292;11.784;2023-05-19T03:24:38;102144.67;;;21.36
69552;BMP280;63774;45.292;11.784;2023-05-19T03:27:05;102143.23;;;21.35
69552;BMP280;63774;45.292;11.784;2023-05-19T03:29:30;102143.45;;;21.35
69552;BMP280;63774;45.292;11.784;2023-05-19T03:31:56;102148.33;;;21.35
69552;BMP280;63774;45.292;11.784;2023-05-19T03:34:21;102148.16;;;21.34
69552;BMP280;63774;45.292;11.784;2023-05-19T03:36:47;102151.59;;;21.35
69552;BMP280;63774;45.292;11.784;2023-05-19T03:39:15;102151.02;;;21.34
69552;BMP280;63774;45.292;11.784;2023-05-19T03:41:41;102154.02;;;21.35
69552;BMP280;63774;45.292;11.784;2023-05-19T03:44:06;102150.10;;;21.34
69552;BMP280;63774;45.292;11.784;2023-05-19T03:46:32;102150.17;;;21.34
69552;BMP280;63774;45.292;11.784;2023-05-19T03:48:57;102149.27;;;21.34
69552;BMP280;63774;45.292;11.784;2023-05-19T03:51:23;102150.66;;;21.35
69552;BMP280;63774;45.292;11.784;2023-05-19T03:53:49;102155.29;;;21.35
69552;BMP280;63774;45.292;11.784;2023-05-19T03:56:15;102154.94;;;21.35
69552;BMP280;63774;45.292;11.784;2023-05-19T03:58:42;102154.92;;;21.35
69552;BMP280;63774;45.292;11.784;2023-05-19T04:01:09;102152.67;;;21.34
69552;BMP280;63774;45.292;11.784;2023-05-19T04:03:35;102153.95;;;21.34
69552;BMP280;63774;45.292;11.784;2023-05-19T04:06:00;102154.43;;;21.35
69552;BMP280;63774;45.292;11.784;2023-05-19T04:08:26;102156.14;;;21.36
69552;BMP280;63774;45.292;11.784;2023-05-19T04:10:51;102158.64;;;21.36
69552;BMP280;63774;45.292;11.784;2023-05-19T04:13:17;102157.66;;;21.35
69552;BMP280;63774;45.292;11.784;2023-05-19T04:15:42;102162.09;;;21.36
69552;BMP280;63774;45.292;11.784;2023-05-19T04:18:08;102161.80;;;21.36
69552;BMP280;63774;45.292;11.784;2023-05-19T04:20:33;102158.26;;;21.36
69552;BMP280;63774;45.292;11.784;2023-05-19T04:22:59;102157.15;;;21.36
69552;BMP280;63774;45.292;11.784;2023-05-19T04:25:24;102156.19;;;21.36
69552;BMP280;63774;45.292;11.784;2023-05-19T04:27:52;102153.71;;;21.35
69552;BMP280;63774;45.292;11.784;2023-05-19T04:30:17;102155.96;;;21.35
69552;BMP280;63774;45.292;11.784;2023-05-19T04:32:47;102153.86;;;21.35
69552;BMP280;63774;45.292;11.784;2023-05-19T04:35:14;102156.77;;;21.35
69552;BMP280;63774;45.292;11.784;2023-05-19T04:37:42;102158.00;;;21.35
69552;BMP280;63774;45.292;11.784;2023-05-19T04:40:13;102161.34;;;21.34
69552;BMP280;63774;45.292;11.784;2023-05-19T04:42:40;102162.04;;;21.33
69552;BMP280;63774;45.292;11.784;2023-05-19T04:45:08;102163.55;;;21.33
69552;BMP280;63774;45.292;11.784;2023-05-19T04:47:36;102163.75;;;21.33
69552;BMP280;63774;45.292;11.784;2023-05-19T04:50:03;102163.66;;;21.34
69552;BMP280;63774;45.292;11.784;2023-05-19T04:52:28;102160.23;;;21.34
69552;BMP280;63774;45.292;11.784;2023-05-19T04:54:54;102158.71;;;21.34
69552;BMP280;63774;45.292;11.784;2023-05-19T04:57:19;102160.19;;;21.34
69552;BMP280;63774;45.292;11.784;2023-05-19T04:59:45;102159.07;;;21.33
69552;BMP280;63774;45.292;11.784;2023-05-19T05:02:10;102163.85;;;21.34
69552;BMP280;63774;45.292;11.784;2023-05-19T05:04:36;102165.71;;;21.34
69552;BMP280;63774;45.292;11.784;2023-05-19T05:07:04;102168.02;;;21.34
69552;BMP280;63774;45.292;11.784;2023-05-19T05:09:30;102171.08;;;21.34
69552;BMP280;63774;45.292;11.784;2023-05-19T05:11:56;102172.56;;;21.33
69552;BMP280;63774;45.292;11.784;2023-05-19T05:14:21;102172.39;;;21.33
69552;BMP280;63774;45.292;11.784;2023-05-19T05:16:48;102173.17;;;21.33
69552;BMP280;63774;45.292;11.784;2023-05-19T05:19:14;102171.11;;;21.33
69552;BMP280;63774;45.292;11.784;2023-05-19T05:21:40;102174.02;;;21.33
69552;BMP280;63774;45.292;11.784;2023-05-19T05:24:07;102169.55;;;21.31
69552;BMP280;63774;45.292;11.784;2023-05-19T05:26:33;102170.40;;;21.32
69552;BMP280;63774;45.292;11.784;2023-05-19T05:29:00;102167.05;;;21.33
69552;BMP280;63774;45.292;11.784;2023-05-19T05:31:25;102174.59;;;21.34
69552;BMP280;63774;45.292;11.784;2023-05-19T05:33:51;102174.95;;;21.34
69552;BMP280;63774;45.292;11.784;2023-05-19T05:36:16;102175.75;;;21.34
69552;BMP280;63774;45.292;11.784;2023-05-19T05:38:42;102180.57;;;21.34
69552;BMP280;63774;45.292;11.784;2023-05-19T05:41:07;102176.40;;;21.34
69552;BMP280;63774;45.292;11.784;2023-05-19T05:43:32;102177.70;;;21.33
69552;BMP280;63774;45.292;11.784;2023-05-19T05:45:59;102180.05;;;21.34
69552;BMP280;63774;45.292;11.784;2023-05-19T05:48:25;102181.83;;;21.34
69552;BMP280;63774;45.292;11.784;2023-05-19T05:50:52;102186.70;;;21.34
69552;BMP280;63774;45.292;11.784;2023-05-19T05:53:19;102190.17;;;21.35
69552;BMP280;63774;45.292;11.784;2023-05-19T05:55:47;102189.11;;;21.35
69552;BMP280;63774;45.292;11.784;2023-05-19T05:58:13;102193.65;;;21.35
69552;BMP280;63774;45.292;11.784;2023-05-19T06:00:42;102193.18;;;21.33
69552;BMP280;63774;45.292;11.784;2023-05-19T06:03:08;102192.97;;;21.33
69552;BMP280;63774;45.292;11.784;2023-05-19T06:05:34;102191.23;;;21.33
69552;BMP280;63774;45.292;11.784;2023-05-19T06:08:00;102199.27;;;21.34
69552;BMP280;63774;45.292;11.784;2023-05-19T06:10:27;102198.66;;;21.34
69552;BMP280;63774;45.292;11.784;2023-05-19T06:12:52;102198.48;;;21.34
69552;BMP280;63774;45.292;11.784;2023-05-19T06:15:18;102198.11;;;21.34
69552;BMP280;63774;45.292;11.784;2023-05-19T06:17:43;102201.73;;;21.33
69552;BMP280;63774;45.292;11.784;2023-05-19T06:20:09;102197.63;;;21.33
69552;BMP280;63774;45.292;11.784;2023-05-19T06:22:35;102198.76;;;21.34
69552;BMP280;63774;45.292;11.784;2023-05-19T06:25:01;102200.30;;;21.33
69552;BMP280;63774;45.292;11.784;2023-05-19T06:27:27;102196.13;;;21.33
69552;BMP280;63774;45.292;11.784;2023-05-19T06:29:53;102197.55;;;21.34
69552;BMP280;63774;45.292;11.784;2023-05-19T06:32:19;102199.11;;;21.33
69552;BMP280;63774;45.292;11.784;2023-05-19T06:34:45;102201.83;;;21.34
69552;BMP280;63774;45.292;11.784;2023-05-19T06:37:10;102199.41;;;21.34
69552;BMP280;63774;45.292;11.784;2023-05-19T06:39:37;102201.41;;;21.34
69552;BMP280;63774;45.292;11.784;2023-05-19T06:42:05;102204.01;;;21.33
69552;BMP280;63774;45.292;11.784;2023-05-19T06:44:31;102206.45;;;21.35
69552;BMP280;63774;45.292;11.784;2023-05-19T06:46:56;102207.89;;;21.34
69552;BMP280;63774;45.292;11.784;2023-05-19T06:49:21;102208.23;;;21.34
69552;BMP280;63774;45.292;11.784;2023-05-19T06:51:48;102212.85;;;21.35
69552;BMP280;63774;45.292;11.784;2023-05-19T06:54:13;102211.16;;;21.34
69552;BMP280;63774;45.292;11.784;2023-05-19T06:56:40;102217.11;;;21.36
69552;BMP280;63774;45.292;11.784;2023-05-19T06:59:05;102221.27;;;21.35
69552;BMP280;63774;45.292;11.784;2023-05-19T07:01:31;102222.14;;;21.34
69552;BMP280;63774;45.292;11.784;2023-05-19T07:03:56;102223.16;;;21.34
69552;BMP280;63774;45.292;11.784;2023-05-19T07:06:22;102225.52;;;21.34
69552;BMP280;63774;45.292;11.784;2023-05-19T07:08:47;102222.39;;;21.34
69552;BMP280;63774;45.292;11.784;2023-05-19T07:11:13;102225.17;;;21.34
69552;BMP280;63774;45.292;11.784;2023-05-19T07:13:38;102225.35;;;21.34
69552;BMP280;63774;45.292;11.784;2023-05-19T07:16:04;102224.46;;;21.33
69552;BMP280;63774;45.292;11.784;2023-05-19T07:18:29;102223.36;;;21.34
69552;BMP280;63774;45.292;11.784;2023-05-19T07:20:56;102219.42;;;21.34
69552;BMP280;63774;45.292;11.784;2023-05-19T07:23:23;102220.73;;;21.34
69552;BMP280;63774;45.292;11.784;2023-05-19T07:25:48;102221.86;;;21.34
69552;BMP280;63774;45.292;11.784;2023-05-19T07:28:14;102221.95;;;21.34
69552;BMP280;63774;45.292;11.784;2023-05-19T07:30:39;102223.81;;;21.34
69552;BMP280;63774;45.292;11.784;2023-05-19T07:33:05;102218.84;;;21.35
69552;BMP280;63774;45.292;11.784;2023-05-19T07:35:31;102227.52;;;21.36
69552;BMP280;63774;45.292;11.784;2023-05-19T07:37:56;102221.89;;;21.34
69552;BMP280;63774;45.292;11.784;2023-05-19T07:40:22;102222.91;;;21.35
69552;BMP280;63774;45.292;11.784;2023-05-19T07:42:48;102223.47;;;21.34
69552;BMP280;63774;45.292;11.784;2023-05-19T07:45:14;102221.11;;;21.34
69552;BMP280;63774;45.292;11.784;2023-05-19T07:47:40;102225.80;;;21.34
69552;BMP280;63774;45.292;11.784;2023-05-19T07:50:06;102223.68;;;21.35
69552;BMP280;63774;45.292;11.784;2023-05-19T07:52:31;102222.63;;;21.34
69552;BMP280;63774;45.292;11.784;2023-05-19T07:54:58;102227.58;;;21.34
69552;BMP280;63774;45.292;11.784;2023-05-19T07:57:23;102229.80;;;21.36
69552;BMP280;63774;45.292;11.784;2023-05-19T07:59:49;102231.31;;;21.37
69552;BMP280;63774;45.292;11.784;2023-05-19T08:02:14;102232.46;;;21.35
69552;BMP280;63774;45.292;11.784;2023-05-19T08:04:40;102233.02;;;21.36
69552;BMP280;63774;45.292;11.784;2023-05-19T08:07:05;102231.02;;;21.37
69552;BMP280;63774;45.292;11.784;2023-05-19T08:09:31;102227.38;;;21.37
69552;BMP280;63774;45.292;11.784;2023-05-19T08:11:56;102229.21;;;21.37
69552;BMP280;63774;45.292;11.784;2023-05-19T08:14:22;102229.28;;;21.40
69552;BMP280;63774;45.292;11.784;2023-05-19T08:16:48;102228.36;;;21.40
69552;BMP280;63774;45.292;11.784;2023-05-19T08:19:14;102225.40;;;21.41
69552;BMP280;63774;45.292;11.784;2023-05-19T08:21:39;102228.48;;;21.43
69552;BMP280;63774;45.292;11.784;2023-05-19T08:24:07;102229.96;;;21.43
69552;BMP280;63774;45.292;11.784;2023-05-19T08:26:33;102230.95;;;21.43
69552;BMP280;63774;45.292;11.784;2023-05-19T08:28:59;102231.13;;;21.43
69552;BMP280;63774;45.292;11.784;2023-05-19T08:31:24;102231.09;;;21.43
69552;BMP280;63774;45.292;11.784;2023-05-19T08:33:50;102230.48;;;21.44
69552;BMP280;63774;45.292;11.784;2023-05-19T08:36:17;102235.42;;;21.45
69552;BMP280;63774;45.292;11.784;2023-05-19T08:38:42;102235.48;;;21.44
69552;BMP280;63774;45.292;11.784;2023-05-19T08:41:08;102234.58;;;21.46
69552;BMP280;63774;45.292;11.784;2023-05-19T08:43:33;102236.80;;;21.45
69552;BMP280;63774;45.292;11.784;2023-05-19T08:45:59;102237.22;;;21.46
69552;BMP280;63774;45.292;11.784;2023-05-19T08:48:28;102243.37;;;21.46
69552;BMP280;63774;45.292;11.784;2023-05-19T08:53:40;102241.89;;;21.46
69552;BMP280;63774;45.292;11.784;2023-05-19T08:56:14;102240.48;;;21.47
69552;BMP280;63774;45.292;11.784;2023-05-19T08:58:41;102241.05;;;21.46
69552;BMP280;63774;45.292;11.784;2023-05-19T09:01:18;102240.09;;;21.48
69552;BMP280;63774;45.292;11.784;2023-05-19T09:03:45;102242.02;;;21.49
69552;BMP280;63774;45.292;11.784;2023-05-19T09:06:14;102242.09;;;21.48
69552;BMP280;63774;45.292;11.784;2023-05-19T09:08:40;102242.55;;;21.48
69552;BMP280;63774;45.292;11.784;2023-05-19T09:11:07;102244.99;;;21.50
69552;BMP280;63774;45.292;11.784;2023-05-19T09:13:33;102248.98;;;21.51
69552;BMP280;63774;45.292;11.784;2023-05-19T09:15:59;102243.57;;;21.50
69552;BMP280;63774;45.292;11.784;2023-05-19T09:18:25;102243.75;;;21.50
69552;BMP280;63774;45.292;11.784;2023-05-19T09:20:56;102242.23;;;21.49
69552;BMP280;63774;45.292;11.784;2023-05-19T09:23:29;102242.91;;;21.50
69552;BMP280;63774;45.292;11.784;2023-05-19T09:26:03;102239.76;;;21.50
69552;BMP280;63774;45.292;11.784;2023-05-19T09:28:33;102240.65;;;21.50
69552;BMP280;63774;45.292;11.784;2023-05-19T09:33:33;102238.84;;;21.54
69552;BMP280;63774;45.292;11.784;2023-05-19T09:35:59;102235.00;;;21.55
69552;BMP280;63774;45.292;11.784;2023-05-19T09:38:26;102234.61;;;21.55
69552;BMP280;63774;45.292;11.784;2023-05-19T09:40:54;102230.72;;;21.55
69552;BMP280;63774;45.292;11.784;2023-05-19T09:43:21;102229.95;;;21.55
69552;BMP280;63774;45.292;11.784;2023-05-19T09:45:48;102236.39;;;21.54
69552;BMP280;63774;45.292;11.784;2023-05-19T09:48:14;102233.95;;;21.54
69552;BMP280;63774;45.292;11.784;2023-05-19T09:50:43;102233.45;;;21.55
69552;BMP280;63774;45.292;11.784;2023-05-19T09:53:12;102232.98;;;21.55
69552;BMP280;63774;45.292;11.784;2023-05-19T09:55:38;102231.27;;;21.56
69552;BMP280;63774;45.292;11.784;2023-05-19T09:58:05;102232.45;;;21.56
69552;BMP280;63774;45.292;11.784;2023-05-19T10:00:31;102231.66;;;21.54
69552;BMP280;63774;45.292;11.784;2023-05-19T10:02:58;102231.89;;;21.56
69552;BMP280;63774;45.292;11.784;2023-05-19T10:05:25;102227.77;;;21.55
69552;BMP280;63774;45.292;11.784;2023-05-19T10:07:53;102224.59;;;21.55
69552;BMP280;63774;45.292;11.784;2023-05-19T10:10:20;102227.54;;;21.56
69552;BMP280;63774;45.292;11.784;2023-05-19T10:12:47;102229.77;;;21.57
69552;BMP280;63774;45.292;11.784;2023-05-19T10:15:15;102227.85;;;21.56
69552;BMP280;63774;45.292;11.784;2023-05-19T10:17:42;102236.42;;;21.57
69552;BMP280;63774;45.292;11.784;2023-05-19T10:20:10;102227.80;;;21.58
69552;BMP280;63774;45.292;11.784;2023-05-19T10:22:37;102226.00;;;21.56
69552;BMP280;63774;45.292;11.784;2023-05-19T10:25:04;102224.74;;;21.56
69552;BMP280;63774;45.292;11.784;2023-05-19T10:27:42;102220.14;;;21.57
69552;BMP280;63774;45.292;11.784;2023-05-19T10:30:18;102223.50;;;21.58
69552;BMP280;63774;45.292;11.784;2023-05-19T10:32:45;102219.98;;;21.58
69552;BMP280;63774;45.292;11.784;2023-05-19T10:35:33;102224.04;;;21.58
69552;BMP280;63774;45.292;11.784;2023-05-19T10:40:38;102221.23;;;21.58
69552;BMP280;63774;45.292;11.784;2023-05-19T10:45:53;102214.43;;;21.64
69552;BMP280;63774;45.292;11.784;2023-05-19T10:48:20;102210.31;;;21.66
69552;BMP280;63774;45.292;11.784;2023-05-19T10:50:46;102206.02;;;21.65
69552;BMP280;63774;45.292;11.784;2023-05-19T10:53:16;102203.48;;;21.65
69552;BMP280;63774;45.292;11.784;2023-05-19T10:55:51;102204.21;;;21.65
69552;BMP280;63774;45.292;11.784;2023-05-19T11:01:18;102205.48;;;21.66
69552;BMP280;63774;45.292;11.784;2023-05-19T11:03:45;102202.48;;;21.64
69552;BMP280;63774;45.292;11.784;2023-05-19T11:06:31;102197.45;;;21.64
69552;BMP280;63774;45.292;11.784;2023-05-19T11:08:58;102194.30;;;21.62
69552;BMP280;63774;45.292;11.784;2023-05-19T11:14:11;102193.97;;;21.64
69552;BMP280;63774;45.292;11.784;2023-05-19T11:16:39;102193.15;;;21.64
69552;BMP280;63774;45.292;11.784;2023-05-19T11:19:06;102191.14;;;21.64
69552;BMP280;63774;45.292;11.784;2023-05-19T11:21:48;102182.69;;;21.64
69552;BMP280;63774;45.292;11.784;2023-05-19T11:27:33;102187.08;;;21.67
69552;BMP280;63774;45.292;11.784;2023-05-19T11:32:31;102189.09;;;21.67
69552;BMP280;63774;45.292;11.784;2023-05-19T11:34:58;102193.44;;;21.67
69552;BMP280;63774;45.292;11.784;2023-05-19T11:37:25;102188.66;;;21.67
69552;BMP280;63774;45.292;11.784;2023-05-19T11:39:51;102190.49;;;21.67
69552;BMP280;63774;45.292;11.784;2023-05-19T11:42:17;102186.48;;;21.67
69552;BMP280;63774;45.292;11.784;2023-05-19T11:44:46;102177.08;;;21.67
69552;BMP280;63774;45.292;11.784;2023-05-19T11:47:13;102177.48;;;21.66
69552;BMP280;63774;45.292;11.784;2023-05-19T11:49:42;102178.85;;;21.67
69552;BMP280;63774;45.292;11.784;2023-05-19T11:52:08;102179.33;;;21.66
69552;BMP280;63774;45.292;11.784;2023-05-19T11:54:34;102177.21;;;21.66
69552;BMP280;63774;45.292;11.784;2023-05-19T11:57:02;102175.56;;;21.67
69552;BMP280;63774;45.292;11.784;2023-05-19T11:59:32;102173.13;;;21.66
69552;BMP280;63774;45.292;11.784;2023-05-19T12:02:02;102177.27;;;21.66
69552;BMP280;63774;45.292;11.784;2023-05-19T12:04:38;102177.29;;;21.66
69552;BMP280;63774;45.292;11.784;2023-05-19T12:07:03;102177.02;;;21.67
69552;BMP280;63774;45.292;11.784;2023-05-19T12:09:29;102175.83;;;21.65
69552;BMP280;63774;45.292;11.784;2023-05-19T12:11:54;102175.08;;;21.67
69552;BMP280;63774;45.292;11.784;2023-05-19T12:14:20;102175.02;;;21.65
69552;BMP280;63774;45.292;11.784;2023-05-19T12:16:46;102174.17;;;21.66
69552;BMP280;63774;45.292;11.784;2023-05-19T12:19:11;102170.55;;;21.65
69552;BMP280;63774;45.292;11.784;2023-05-19T12:21:37;102173.95;;;21.66
69552;BMP280;63774;45.292;11.784;2023-05-19T12:24:03;102176.17;;;21.65
69552;BMP280;63774;45.292;11.784;2023-05-19T12:26:30;102177.44;;;21.65
69552;BMP280;63774;45.292;11.784;2023-05-19T12:28:57;102176.91;;;21.64
69552;BMP280;63774;45.292;11.784;2023-05-19T12:31:22;102174.70;;;21.65
69552;BMP280;63774;45.292;11.784;2023-05-19T12:33:48;102169.24;;;21.64
69552;BMP280;63774;45.292;11.784;2023-05-19T12:36:17;102167.79;;;21.65
69552;BMP280;63774;45.292;11.784;2023-05-19T12:38:44;102168.25;;;21.65
69552;BMP280;63774;45.292;11.784;2023-05-19T12:41:11;102165.09;;;21.63
69552;BMP280;63774;45.292;11.784;2023-05-19T12:43:36;102164.10;;;21.63
69552;BMP280;63774;45.292;11.784;2023-05-19T12:46:12;102168.38;;;21.63
69552;BMP280;63774;45.292;11.784;2023-05-19T12:48:45;102168.99;;;21.61
69552;BMP280;63774;45.292;11.784;2023-05-19T12:51:18;102170.19;;;21.62
69552;BMP280;63774;45.292;11.784;2023-05-19T12:53:43;102175.31;;;21.62
69552;BMP280;63774;45.292;11.784;2023-05-19T12:56:14;102173.80;;;21.63
69552;BMP280;63774;45.292;11.784;2023-05-19T12:58:42;102172.14;;;21.63
69552;BMP280;63774;45.292;11.784;2023-05-19T13:01:18;102168.39;;;21.63
69552;BMP280;63774;45.292;11.784;2023-05-19T13:03:43;102168.48;;;21.62
69552;BMP280;63774;45.292;11.784;2023-05-19T13:06:10;102170.30;;;21.65
69552;BMP280;63774;45.292;11.784;2023-05-19T13:08:37;102170.91;;;21.66
69552;BMP280;63774;45.292;11.784;2023-05-19T13:11:05;102169.70;;;21.65
69552;BMP280;63774;45.292;11.784;2023-05-19T13:13:31;102169.27;;;21.67
69552;BMP280;63774;45.292;11.784;2023-05-19T13:15:56;102167.09;;;21.66
69552;BMP280;63774;45.292;11.784;2023-05-19T13:18:22;102165.40;;;21.65
69552;BMP280;63774;45.292;11.784;2023-05-19T13:20:48;102165.27;;;21.65
69552;BMP280;63774;45.292;11.784;2023-05-19T13:23:15;102162.95;;;21.66
69552;BMP280;63774;45.292;11.784;2023-05-19T13:25:41;102159.38;;;21.65
69552;BMP280;63774;45.292;11.784;2023-05-19T13:28:07;102161.21;;;21.66
69552;BMP280;63774;45.292;11.784;2023-05-19T13:30:34;102160.01;;;21.65
69552;BMP280;63774;45.292;11.784;2023-05-19T13:33:01;102159.17;;;21.66
69552;BMP280;63774;45.292;11.784;2023-05-19T13:35:27;102161.42;;;21.65
69552;BMP280;63774;45.292;11.784;2023-05-19T13:37:55;102161.29;;;21.66
69552;BMP280;63774;45.292;11.784;2023-05-19T13:40:20;102162.63;;;21.66
69552;BMP280;63774;45.292;11.784;2023-05-19T13:42:48;102163.85;;;21.67
69552;BMP280;63774;45.292;11.784;2023-05-19T13:45:13;102162.27;;;21.66
69552;BMP280;63774;45.292;11.784;2023-05-19T13:47:39;102160.86;;;21.66
69552;BMP280;63774;45.292;11.784;2023-05-19T13:50:05;102155.80;;;21.66
69552;BMP280;63774;45.292;11.784;2023-05-19T13:52:30;102154.23;;;21.67
69552;BMP280;63774;45.292;11.784;2023-05-19T13:54:56;102152.91;;;21.68
69552;BMP280;63774;45.292;11.784;2023-05-19T13:57:22;102153.42;;;21.67
69552;BMP280;63774;45.292;11.784;2023-05-19T13:59:48;102153.20;;;21.68
69552;BMP280;63774;45.292;11.784;2023-05-19T14:02:13;102153.33;;;21.67
69552;BMP280;63774;45.292;11.784;2023-05-19T14:04:39;102153.41;;;21.70
69552;BMP280;63774;45.292;11.784;2023-05-19T14:07:05;102149.86;;;21.69
69552;BMP280;63774;45.292;11.784;2023-05-19T14:09:30;102150.65;;;21.71
69552;BMP280;63774;45.292;11.784;2023-05-19T14:11:56;102150.60;;;21.70
69552;BMP280;63774;45.292;11.784;2023-05-19T14:14:22;102152.77;;;21.70
69552;BMP280;63774;45.292;11.784;2023-05-19T14:16:47;102148.59;;;21.70
69552;BMP280;63774;45.292;11.784;2023-05-19T14:19:13;102149.90;;;21.71
69552;BMP280;63774;45.292;11.784;2023-05-19T14:21:38;102145.85;;;21.69